Time;durP1;ratioP1;P1;durP2;ratioP2;P2;SDS_P1;SDS_P2;PMS_P1;PMS_P2;Temp;Humidity;BMP_temperature;BMP_pressure;BME280_temperature;BME280_humidity;BME280_pressure;Samples;Min_cycle;Max_cycle;Signal;HPM_P1;HPM_P2
2022/07/09 00:02:21;;;;;;;11.07;3.35;;;17.90;68.00;;;;;;2347613;57;21053;-73
2022/07/09 00:04:48;;;;;;;9.90;3.10;;;17.90;68.00;;;;;;2347022;57;21027;-73
2022/07/09 00:07:16;;;;;;;8.48;2.83;;;17.90;68.00;;;;;;2346326;57;21055;-73
2022/07/09 00:09:43;;;;;;;10.60;2.80;;;17.90;67.70;;;;;;2346461;57;21127;-73
2022/07/09 00:12:10;;;;;;;11.68;3.40;;;17.90;68.10;;;;;;2346851;57;21073;-73
2022/07/09 00:14:37;;;;;;;7.28;3.72;;;17.90;68.20;;;;;;2347196;57;21097;-73
2022/07/09 00:17:05;;;;;;;11.70;4.45;;;17.90;68.30;;;;;;2346085;57;21042;-73
2022/07/09 00:19:33;;;;;;;7.87;3.20;;;17.90;68.70;;;;;;2347343;57;21025;-72
2022/07/09 00:22:00;;;;;;;9.43;3.22;;;17.80;68.70;;;;;;2347707;57;21061;-73
2022/07/09 00:24:27;;;;;;;9.73;3.28;;;17.80;68.90;;;;;;2346246;57;21034;-73
2022/07/09 00:26:54;;;;;;;12.70;3.58;;;17.90;69.00;;;;;;2346501;57;21113;-73
2022/07/09 00:29:22;;;;;;;9.70;3.05;;;17.90;68.70;;;;;;2347337;57;21081;-73
2022/07/09 00:31:49;;;;;;;8.63;3.50;;;17.90;68.80;;;;;;2346148;57;21058;-73
2022/07/09 00:34:17;;;;;;;9.45;3.72;;;17.90;68.80;;;;;;2345475;57;21109;-73
2022/07/09 00:36:44;;;;;;;12.60;3.20;;;17.90;68.80;;;;;;2592868;53;21038;-73
2022/07/09 00:39:11;;;;;;;7.57;3.20;;;18.00;68.90;;;;;;2346528;57;21065;-73
2022/07/09 00:41:39;;;;;;;10.15;3.42;;;18.00;68.90;;;;;;2592823;53;21093;-72
2022/07/09 00:46:41;;;;;;;10.13;3.50;;;18.00;68.90;;;;;;2334905;57;27792;-72
2022/07/09 00:49:08;;;;;;;10.50;3.50;;;17.80;70.70;;;;;;2348387;56;21117;-73
2022/07/09 00:51:36;;;;;;;10.75;3.20;;;17.90;70.00;;;;;;2374795;56;21055;-73
2022/07/09 00:54:04;;;;;;;14.10;3.15;;;18.00;69.60;;;;;;2374389;56;21059;-73
2022/07/09 00:56:32;;;;;;;10.65;3.47;;;18.00;69.30;;;;;;2374234;56;21023;-73
2022/07/09 00:59:00;;;;;;;14.82;3.42;;;18.10;69.40;;;;;;2374221;56;21517;-72
2022/07/09 01:01:27;;;;;;;12.80;3.78;;;18.00;69.30;;;;;;2374470;56;21047;-72
2022/07/09 01:03:54;;;;;;;12.68;3.15;;;18.10;69.30;;;;;;2375058;56;21050;-73
2022/07/09 01:06:22;;;;;;;8.95;3.37;;;18.00;69.40;;;;;;2373828;56;21051;-73
2022/07/09 01:08:49;;;;;;;11.15;3.83;;;18.00;69.60;;;;;;2375114;56;21114;-73
2022/07/09 01:11:17;;;;;;;8.75;3.60;;;18.00;69.70;;;;;;2374936;56;21031;-73
2022/07/09 01:13:44;;;;;;;13.32;3.87;;;17.90;69.70;;;;;;2373046;56;21114;-73
2022/07/09 01:16:15;;;;;;;11.90;3.45;;;18.00;70.00;;;;;;2371686;56;21632;-73
2022/07/09 01:18:47;;;;;;;5.80;3.03;;;17.90;70.10;;;;;;2374818;56;21039;-72
2022/07/09 01:21:15;;;;;;;8.95;3.40;;;17.90;69.90;;;;;;2374645;56;21110;-73
2022/07/09 01:23:42;;;;;;;8.93;3.37;;;18.00;70.00;;;;;;2375059;56;21117;-73
2022/07/09 01:26:10;;;;;;;6.37;3.15;;;18.00;70.00;;;;;;2373758;56;21126;-73
2022/07/09 01:28:37;;;;;;;11.73;3.97;;;18.00;70.10;;;;;;2374317;56;21102;-73
2022/07/09 01:31:05;;;;;;;10.20;3.37;;;18.00;70.10;;;;;;2374827;56;21067;-73
2022/07/09 01:33:33;;;;;;;11.00;3.65;;;18.00;70.10;;;;;;2374626;56;21585;-73
2022/07/09 01:36:00;;;;;;;12.07;3.10;;;18.10;70.20;;;;;;2373640;56;21113;-73
2022/07/09 01:38:28;;;;;;;10.43;3.58;;;18.10;70.00;;;;;;2374710;56;21102;-73
2022/07/09 01:40:56;;;;;;;7.55;2.92;;;18.20;69.90;;;;;;2628613;52;21039;-73
2022/07/09 01:43:24;;;;;;;11.48;3.45;;;18.20;69.70;;;;;;2374975;56;21111;-72
2022/07/09 01:45:51;;;;;;;8.30;4.68;;;18.20;69.60;;;;;;2373753;56;21672;-73
2022/07/09 01:48:19;;;;;;;7.18;2.75;;;18.20;69.50;;;;;;2375506;56;21122;-73
2022/07/09 01:50:46;;;;;;;8.07;3.55;;;18.20;69.50;;;;;;2374372;56;21121;-73
2022/07/09 01:53:13;;;;;;;9.55;3.60;;;18.20;69.30;;;;;;2375108;56;21134;-73
2022/07/09 01:55:41;;;;;;;9.15;3.80;;;18.30;69.40;;;;;;2374223;56;21133;-73
2022/07/09 01:58:08;;;;;;;11.52;3.90;;;18.20;69.30;;;;;;2374142;56;21054;-72
2022/07/09 02:00:36;;;;;;;8.85;3.30;;;18.30;69.40;;;;;;2372926;56;21079;-73
2022/07/09 02:03:03;;;;;;;13.52;4.40;;;18.30;69.30;;;;;;2373393;56;21521;-73
2022/07/09 02:05:30;;;;;;;10.23;3.97;;;18.30;69.30;;;;;;2372172;56;21052;-72
2022/07/09 02:07:58;;;;;;;12.25;4.25;;;18.30;69.30;;;;;;2374113;56;21027;-72
2022/07/09 02:10:25;;;;;;;9.98;4.62;;;18.20;69.20;;;;;;2374179;56;21548;-73
2022/07/09 02:12:53;;;;;;;6.62;3.87;;;18.30;69.30;;;;;;2373805;56;21043;-73
2022/07/09 02:15:21;;;;;;;10.68;4.12;;;18.30;69.30;;;;;;2372085;56;22143;-72
2022/07/09 02:17:49;;;;;;;10.98;4.65;;;18.30;69.40;;;;;;2372962;56;21168;-73
2022/07/09 02:20:16;;;;;;;11.07;4.22;;;18.30;69.60;;;;;;2373685;56;21149;-73
2022/07/09 02:22:43;;;;;;;10.38;3.80;;;18.30;69.60;;;;;;2374338;56;21914;-73
2022/07/09 02:25:11;;;;;;;9.35;3.90;;;18.30;69.60;;;;;;2374222;56;21549;-73
2022/07/09 02:27:38;;;;;;;9.98;4.37;;;18.30;69.60;;;;;;2373738;56;21117;-73
2022/07/09 02:30:07;;;;;;;18.25;5.68;;;18.40;69.70;;;;;;2373032;56;21739;-73
2022/07/09 02:32:36;;;;;;;11.23;5.07;;;18.30;69.70;;;;;;2372305;56;21051;-73
2022/07/09 02:35:04;;;;;;;9.93;3.80;;;18.30;69.70;;;;;;2373474;56;21117;-73
2022/07/09 02:37:31;;;;;;;11.45;4.55;;;18.30;69.60;;;;;;2373318;56;21062;-73
2022/07/09 02:39:59;;;;;;;10.73;4.15;;;18.30;69.80;;;;;;2373963;56;21098;-73
2022/07/09 02:42:26;;;;;;;9.07;3.72;;;18.30;69.90;;;;;;2374066;56;21094;-73
2022/07/09 02:44:54;;;;;;;12.52;4.62;;;18.30;70.00;;;;;;2373471;56;21055;-73
2022/07/09 02:47:21;;;;;;;12.35;4.20;;;18.30;70.00;;;;;;2373261;56;21055;-72
2022/07/09 02:49:48;;;;;;;13.13;4.20;;;18.30;70.20;;;;;;2373675;56;21027;-73
2022/07/09 02:52:16;;;;;;;17.98;4.62;;;18.30;70.30;;;;;;2373289;56;21055;-72
2022/07/09 02:54:43;;;;;;;12.10;3.92;;;18.30;70.50;;;;;;2373948;56;21031;-73
2022/07/09 02:57:12;;;;;;;7.40;3.83;;;18.20;70.50;;;;;;2626328;52;21589;-73
2022/07/09 02:59:39;;;;;;;13.13;4.03;;;18.20;70.60;;;;;;2373595;56;21094;-73
2022/07/09 03:02:06;;;;;;;8.18;4.25;;;18.20;70.50;;;;;;2373322;56;21121;-73
2022/07/09 03:04:34;;;;;;;10.52;4.30;;;18.20;70.40;;;;;;2373798;56;21525;-72
2022/07/09 03:07:01;;;;;;;11.32;4.40;;;18.30;70.40;;;;;;2372279;56;21055;-73
2022/07/09 03:09:29;;;;;;;11.05;4.35;;;18.30;70.60;;;;;;2373956;56;21048;-72
2022/07/09 03:11:56;;;;;;;12.10;4.53;;;18.30;70.60;;;;;;2373565;56;21043;-72
2022/07/09 03:14:23;;;;;;;16.42;4.75;;;18.30;70.80;;;;;;2373149;56;21126;-72
2022/07/09 03:16:51;;;;;;;15.38;5.35;;;18.30;70.80;;;;;;2372990;56;21047;-73
2022/07/09 03:19:19;;;;;;;11.93;4.00;;;18.20;71.00;;;;;;2373214;56;21138;-73
2022/07/09 03:21:46;;;;;;;9.10;4.35;;;18.30;70.90;;;;;;2374252;56;21101;-73
2022/07/09 03:24:13;;;;;;;11.63;4.55;;;18.20;71.00;;;;;;2372693;56;21589;-72
2022/07/09 03:26:41;;;;;;;13.27;4.40;;;18.20;71.10;;;;;;2373164;56;21043;-73
2022/07/09 03:29:08;;;;;;;12.35;4.30;;;18.20;71.10;;;;;;2373712;56;21118;-73
2022/07/09 03:31:35;;;;;;;12.10;4.45;;;18.20;71.50;;;;;;2373869;56;21258;-73
2022/07/09 03:34:03;;;;;;;10.02;4.35;;;18.20;71.60;;;;;;2372940;56;21197;-73
2022/07/09 03:36:30;;;;;;;9.32;4.00;;;18.10;71.90;;;;;;2373245;56;21054;-72
2022/07/09 03:38:58;;;;;;;16.15;5.20;;;18.10;72.10;;;;;;2374026;56;21039;-72
2022/07/09 03:41:25;;;;;;;13.85;4.40;;;18.10;72.40;;;;;;2373287;56;21605;-72
2022/07/09 03:43:52;;;;;;;12.00;4.12;;;18.10;72.70;;;;;;2373908;56;21031;-73
2022/07/09 03:46:20;;;;;;;11.10;5.47;;;18.10;72.80;;;;;;2372860;56;21039;-73
2022/07/09 03:48:48;;;;;;;11.80;4.47;;;18.10;72.90;;;;;;2373679;56;21090;-73
2022/07/09 03:51:16;;;;;;;14.63;5.30;;;18.10;73.10;;;;;;2372976;56;21035;-73
2022/07/09 03:53:43;;;;;;;14.32;4.18;;;18.10;73.40;;;;;;2373636;56;21066;-73
2022/07/09 03:56:12;;;;;;;7.00;3.70;;;18.10;73.40;;;;;;2626117;52;21044;-73
2022/07/09 03:58:39;;;;;;;10.52;4.35;;;18.10;73.40;;;;;;2373835;56;21047;-73
2022/07/09 04:01:06;;;;;;;12.23;4.22;;;18.20;73.40;;;;;;2373535;56;21046;-73
2022/07/09 04:03:34;;;;;;;12.25;4.80;;;18.20;73.40;;;;;;2626854;52;21023;-73
2022/07/09 04:06:01;;;;;;;8.75;4.22;;;18.20;73.00;;;;;;2372220;56;21126;-73
2022/07/09 04:08:29;;;;;;;13.55;3.95;;;18.20;72.90;;;;;;2373465;56;21050;-73
2022/07/09 04:10:56;;;;;;;16.42;6.55;;;18.20;72.90;;;;;;2373615;56;21054;-73
2022/07/09 04:13:23;;;;;;;11.15;4.00;;;18.20;72.90;;;;;;2373179;56;21114;-73
2022/07/09 04:15:51;;;;;;;13.02;4.22;;;18.20;73.20;;;;;;2372752;56;21178;-72
2022/07/09 04:18:18;;;;;;;11.23;4.25;;;18.20;74.00;;;;;;2373481;56;21538;-73
2022/07/09 04:20:46;;;;;;;12.30;4.43;;;18.20;73.40;;;;;;2373967;56;21050;-73
2022/07/09 04:23:13;;;;;;;11.38;4.12;;;18.20;73.60;;;;;;2372284;56;21166;-73
2022/07/09 04:25:40;;;;;;;6.87;3.58;;;18.20;73.50;;;;;;2372827;56;21115;-73
2022/07/09 04:28:08;;;;;;;10.63;3.95;;;18.20;73.60;;;;;;2351444;55;21597;-76
2022/07/09 04:33:11;;;;;;;9.93;4.50;;;18.30;73.00;;;;;;2355141;57;22078;-76
2022/07/09 04:35:39;;;;;;;7.15;3.30;;;18.30;73.20;;;;;;2346529;57;21057;-76
2022/07/09 04:38:06;;;;;;;9.98;3.80;;;18.30;73.20;;;;;;2347715;57;21108;-76
2022/07/09 04:40:34;;;;;;;10.55;4.00;;;18.30;73.20;;;;;;2364845;56;21030;-76
2022/07/09 04:43:01;;;;;;;8.23;3.55;;;18.30;73.10;;;;;;2374829;56;21038;-77
2022/07/09 04:45:29;;;;;;;11.88;4.12;;;18.30;73.30;;;;;;2372775;56;21027;-76
2022/07/09 04:47:58;;;;;;;9.70;4.22;;;18.30;73.20;;;;;;2374979;56;21126;-75
2022/07/09 04:50:26;;;;;;;9.63;4.10;;;18.40;73.30;;;;;;2373553;56;21051;-76
2022/07/09 04:52:54;;;;;;;9.95;4.20;;;18.40;73.50;;;;;;2372839;56;21058;-75
2022/07/09 04:55:22;;;;;;;9.05;4.20;;;18.30;73.90;;;;;;2373148;56;21042;-76
2022/07/09 04:57:49;;;;;;;11.75;4.97;;;18.30;73.90;;;;;;2374059;56;21039;-75
2022/07/09 05:00:17;;;;;;;5.47;3.85;;;18.30;74.10;;;;;;2373946;56;21122;-75
2022/07/09 05:02:45;;;;;;;8.25;4.30;;;18.30;74.30;;;;;;2373722;56;21043;-76
2022/07/09 05:05:13;;;;;;;8.35;4.15;;;18.30;74.60;;;;;;2373623;56;21047;-77
2022/07/09 05:07:41;;;;;;;10.73;4.22;;;18.30;74.70;;;;;;2370876;56;21063;-76
2022/07/09 05:10:10;;;;;;;11.32;4.05;;;18.20;74.80;;;;;;2371931;56;21059;-75
2022/07/09 05:12:37;;;;;;;11.63;4.22;;;18.20;75.00;;;;;;2374366;56;21097;-76
2022/07/09 05:15:06;;;;;;;6.47;3.87;;;18.30;74.80;;;;;;2373773;56;21302;-76
2022/07/09 05:17:35;;;;;;;7.47;3.55;;;18.30;74.90;;;;;;2374148;56;21059;-76
2022/07/09 05:20:04;;;;;;;8.75;3.87;;;18.40;74.60;;;;;;2374690;56;21043;-76
2022/07/09 05:22:32;;;;;;;8.25;4.18;;;18.40;74.60;;;;;;2374042;56;21055;-76
2022/07/09 05:24:59;;;;;;;6.03;3.45;;;18.40;74.90;;;;;;2371719;56;21165;-76
2022/07/09 05:27:27;;;;;;;8.07;3.67;;;18.40;74.80;;;;;;2373627;56;21588;-76
2022/07/09 05:29:55;;;;;;;8.63;3.72;;;18.40;74.80;;;;;;2625153;52;21106;-75
2022/07/09 05:32:31;;;;;;;9.30;3.72;;;18.40;74.90;;;;;;2371465;56;21043;-76
2022/07/09 05:34:59;;;;;;;12.07;3.85;;;18.40;75.10;;;;;;2370406;56;21078;-76
2022/07/09 05:37:26;;;;;;;7.03;3.22;;;18.40;74.90;;;;;;2370615;56;21297;-76
2022/07/09 05:39:56;;;;;;;10.90;3.97;;;18.50;74.90;;;;;;2370193;56;21533;-76
2022/07/09 05:42:24;;;;;;;6.43;3.55;;;18.50;75.10;;;;;;2370102;56;21051;-76
2022/07/09 05:44:51;;;;;;;8.65;3.92;;;18.50;75.00;;;;;;2369461;56;21035;-76
2022/07/09 05:47:18;;;;;;;10.15;4.62;;;18.50;75.00;;;;;;2624284;52;21039;-76
2022/07/09 05:49:46;;;;;;;10.60;4.22;;;18.50;75.20;;;;;;2372071;56;21027;-75
2022/07/09 05:52:13;;;;;;;10.20;3.17;;;18.50;75.10;;;;;;2373227;56;21126;-76
2022/07/09 05:54:40;;;;;;;11.70;3.90;;;18.50;75.30;;;;;;2371722;56;21035;-75
2022/07/09 05:57:08;;;;;;;8.63;3.87;;;18.50;75.30;;;;;;2371724;56;21540;-76
2022/07/09 05:59:35;;;;;;;8.95;3.60;;;18.60;75.20;;;;;;2371846;56;21058;-77
2022/07/09 06:02:05;;;;;;;7.50;3.28;;;18.60;75.20;;;;;;2372010;56;21046;-76
2022/07/09 06:04:32;;;;;;;8.05;3.33;;;18.70;74.90;;;;;;2372252;56;21110;-76
2022/07/09 06:07:00;;;;;;;8.35;3.87;;;18.70;74.80;;;;;;2371970;56;22289;-76
2022/07/09 06:09:27;;;;;;;7.28;3.30;;;18.80;74.80;;;;;;2371286;56;22019;-76
2022/07/09 06:11:54;;;;;;;8.98;3.17;;;18.80;74.80;;;;;;2370480;56;21062;-77
2022/07/09 06:14:21;;;;;;;10.15;3.08;;;18.80;74.50;;;;;;2369965;56;21905;-76
2022/07/09 06:16:49;;;;;;;9.13;3.28;;;18.80;74.80;;;;;;2368589;56;21577;-76
2022/07/09 06:19:16;;;;;;;7.47;3.30;;;18.90;74.70;;;;;;2371720;56;21094;-76
2022/07/09 06:21:44;;;;;;;6.80;3.05;;;18.90;74.60;;;;;;2370825;56;21053;-77
2022/07/09 06:24:11;;;;;;;9.50;4.50;;;19.00;74.70;;;;;;2370553;56;21039;-77
2022/07/09 06:26:38;;;;;;;6.40;3.35;;;19.00;74.80;;;;;;2371913;56;21521;-76
2022/07/09 06:29:06;;;;;;;5.10;2.62;;;19.10;75.00;;;;;;2371912;56;21126;-76
2022/07/09 06:31:34;;;;;;;6.32;2.97;;;19.20;74.70;;;;;;2371867;56;21609;-76
2022/07/09 06:34:02;;;;;;;6.10;2.70;;;19.20;74.70;;;;;;2371967;56;21066;-76
2022/07/09 06:36:30;;;;;;;9.88;3.03;;;19.40;74.30;;;;;;2371399;56;21482;-75
2022/07/09 06:41:42;;;;;;;7.18;3.03;;;19.50;73.90;;;;;;2370906;56;21059;-77
2022/07/09 06:44:10;;;;;;;7.57;3.00;;;19.50;73.50;;;;;;2372251;56;21055;-76
2022/07/09 06:46:38;;;;;;;8.30;2.97;;;19.50;73.70;;;;;;2371818;56;21117;-77
2022/07/09 06:49:06;;;;;;;10.95;4.35;;;19.50;74.00;;;;;;2371769;56;21154;-75
2022/07/09 06:51:33;;;;;;;6.20;3.20;;;19.60;74.10;;;;;;2372245;56;21046;-76
2022/07/09 06:54:00;;;;;;;5.22;3.40;;;19.60;74.20;;;;;;2370924;56;21051;-76
2022/07/09 06:56:28;;;;;;;6.60;2.87;;;19.60;74.40;;;;;;2369552;56;21106;-76
2022/07/09 06:58:55;;;;;;;7.62;3.55;;;19.70;74.20;;;;;;2371000;56;21126;-77
2022/07/09 07:01:22;;;;;;;5.68;3.72;;;19.70;73.80;;;;;;2372033;56;21057;-76
2022/07/09 07:03:50;;;;;;;11.15;4.95;;;19.60;74.10;;;;;;2372170;56;22330;-77
2022/07/09 07:06:17;;;;;;;7.18;3.58;;;19.70;74.60;;;;;;2371088;56;21526;-76
2022/07/09 07:08:44;;;;;;;9.40;3.37;;;19.60;74.20;;;;;;2371372;56;21110;-77
2022/07/09 07:11:11;;;;;;;12.25;3.50;;;19.70;73.60;;;;;;2371358;56;21349;-76
2022/07/09 07:13:39;;;;;;;4.40;2.80;;;19.60;73.90;;;;;;2371141;56;21051;-76
2022/07/09 07:16:08;;;;;;;7.65;4.78;;;19.60;74.60;;;;;;2372320;56;21062;-77
2022/07/09 07:18:35;;;;;;;8.20;4.80;;;19.60;75.10;;;;;;2372857;56;21047;-77
2022/07/09 07:21:03;;;;;;;6.75;4.95;;;19.70;74.40;;;;;;2372523;56;21097;-76
2022/07/09 07:23:31;;;;;;;8.63;4.95;;;19.60;74.40;;;;;;2372186;56;21062;-76
2022/07/09 07:25:59;;;;;;;5.93;3.45;;;19.70;74.50;;;;;;2372068;56;21348;-76
2022/07/09 07:31:02;;;;;;;4.18;2.85;;;19.80;74.80;;;;;;2331615;57;22107;-76
2022/07/09 07:33:30;;;;;;;8.55;3.80;;;19.80;75.10;;;;;;2345470;57;21089;-76
2022/07/09 07:35:57;;;;;;;6.10;3.30;;;19.80;75.40;;;;;;2343720;57;21116;-76
2022/07/09 07:38:27;;;;;;;8.95;3.30;;;19.80;75.50;;;;;;2346600;57;21114;-75
2022/07/09 07:40:54;;;;;;;5.70;3.35;;;19.80;76.60;;;;;;2346410;57;21168;-76
2022/07/09 07:43:22;;;;;;;7.40;3.55;;;19.90;75.70;;;;;;2346792;57;21117;-75
2022/07/09 07:45:49;;;;;;;4.85;2.80;;;19.90;75.40;;;;;;2593335;53;21041;-76
2022/07/09 07:48:16;;;;;;;5.75;3.10;;;19.90;75.60;;;;;;2347072;57;21061;-75
2022/07/09 07:50:44;;;;;;;6.50;3.22;;;19.90;75.70;;;;;;2346216;57;21568;-77
2022/07/09 07:53:11;;;;;;;5.87;3.08;;;20.00;75.80;;;;;;2345262;57;21612;-77
2022/07/09 07:55:39;;;;;;;4.85;2.42;;;20.10;75.60;;;;;;2345669;57;21140;-77
2022/07/09 07:58:06;;;;;;;4.20;2.40;;;20.10;75.30;;;;;;2346386;57;21042;-77
2022/07/09 08:00:34;;;;;;;5.40;2.55;;;20.10;74.80;;;;;;2593331;52;21042;-76
2022/07/09 08:03:01;;;;;;;5.07;2.30;;;20.20;75.10;;;;;;2344402;57;21062;-76
2022/07/09 08:05:29;;;;;;;8.27;3.65;;;20.30;75.00;;;;;;2344632;57;21037;-76
2022/07/09 08:07:56;;;;;;;4.37;2.53;;;20.40;75.00;;;;;;2344976;57;21496;-77
2022/07/09 08:10:25;;;;;;;7.18;2.10;;;20.40;74.00;;;;;;2346320;57;21061;-77
2022/07/09 08:12:53;;;;;;;6.47;3.70;;;20.40;73.00;;;;;;2346179;57;21049;-76
2022/07/09 08:15:20;;;;;;;4.28;2.10;;;20.40;72.60;;;;;;2344297;57;21050;-75
2022/07/09 08:17:48;;;;;;;7.75;3.00;;;20.40;72.50;;;;;;2344397;57;21497;-79
2022/07/09 08:20:15;;;;;;;22.02;13.43;;;20.50;72.70;;;;;;2344941;57;21054;-77
2022/07/09 08:22:42;;;;;;;164.32;75.20;;;20.50;72.80;;;;;;2345078;57;21065;-77
2022/07/09 08:25:10;;;;;;;126.57;59.47;;;20.60;71.80;;;;;;2344762;57;21045;-78
2022/07/09 08:27:37;;;;;;;15.80;6.20;;;20.70;71.70;;;;;;2344255;57;21050;-78
2022/07/09 08:30:07;;;;;;;5.97;2.20;;;20.70;71.50;;;;;;2592439;52;21117;-77
2022/07/09 08:32:34;;;;;;;3.67;2.00;;;20.80;70.70;;;;;;2345088;57;21101;-77
2022/07/09 08:35:01;;;;;;;4.00;2.03;;;20.80;70.50;;;;;;2345241;57;21057;-77
2022/07/09 08:37:29;;;;;;;4.68;1.80;;;20.90;70.00;;;;;;2344043;57;21030;-77
2022/07/09 08:39:56;;;;;;;3.30;1.75;;;20.90;70.00;;;;;;2344910;57;21121;-77
2022/07/09 08:42:23;;;;;;;4.53;1.98;;;20.90;70.00;;;;;;2591334;53;21025;-78
2022/07/09 08:44:52;;;;;;;2.03;1.60;;;20.90;69.90;;;;;;2345008;57;21069;-78
2022/07/09 08:47:21;;;;;;;2.62;1.50;;;21.00;70.50;;;;;;2343337;57;21113;-77
2022/07/09 08:49:49;;;;;;;4.62;1.95;;;21.00;69.60;;;;;;2342728;57;21029;-77
2022/07/09 08:52:18;;;;;;;3.72;1.87;;;21.00;69.80;;;;;;2344054;57;21089;-78
2022/07/09 08:54:46;;;;;;;7.07;1.50;;;21.00;70.10;;;;;;2345567;57;21105;-77
2022/07/09 08:57:14;;;;;;;4.10;2.12;;;21.00;70.00;;;;;;2591239;53;21041;-78
2022/07/09 08:59:41;;;;;;;2.97;1.60;;;21.00;69.20;;;;;;2344710;57;21132;-77
2022/07/09 09:02:09;;;;;;;4.60;1.73;;;21.00;69.60;;;;;;2344289;57;21162;-77
2022/07/09 09:04:39;;;;;;;4.07;1.62;;;21.00;69.00;;;;;;2343916;57;21571;-77
2022/07/09 09:07:14;;;;;;;2.62;1.40;;;21.00;69.20;;;;;;2342040;57;21042;-77
2022/07/09 09:09:42;;;;;;;5.28;1.83;;;21.10;68.80;;;;;;2343818;57;21101;-77
2022/07/09 09:12:11;;;;;;;2.92;1.40;;;21.10;68.90;;;;;;2343423;57;21085;-77
2022/07/09 09:14:38;;;;;;;4.32;1.80;;;21.10;68.90;;;;;;2343009;57;21125;-77
2022/07/09 09:17:09;;;;;;;2.83;1.35;;;21.10;68.70;;;;;;2341154;57;21129;-77
2022/07/09 09:19:36;;;;;;;3.53;1.85;;;21.10;69.20;;;;;;2591071;52;21057;-77
2022/07/09 09:22:05;;;;;;;3.50;1.70;;;21.10;69.20;;;;;;2343823;57;21053;-77
2022/07/09 09:24:34;;;;;;;3.55;2.00;;;21.20;68.80;;;;;;2343271;57;21164;-77
2022/07/09 09:27:02;;;;;;;3.33;1.55;;;21.20;68.40;;;;;;2344087;57;21098;-76
2022/07/09 09:29:30;;;;;;;2.15;1.25;;;21.30;68.00;;;;;;2344852;57;21121;-77
2022/07/09 09:31:57;;;;;;;5.80;1.37;;;21.30;65.70;;;;;;2343297;57;21134;-78
2022/07/09 09:34:24;;;;;;;3.90;1.17;;;21.30;64.80;;;;;;2344800;57;21038;-77
2022/07/09 09:36:54;;;;;;;2.30;1.35;;;21.30;65.00;;;;;;2344001;57;21034;-76
2022/07/09 09:39:24;;;;;;;4.10;1.50;;;21.30;65.80;;;;;;2343930;57;21057;-76
2022/07/09 09:41:52;;;;;;;4.03;1.50;;;21.30;66.60;;;;;;2345130;57;21057;-77
2022/07/09 09:44:23;;;;;;;5.97;1.90;;;21.30;66.50;;;;;;2344932;57;21077;-77
2022/07/09 09:46:51;;;;;;;1.62;1.50;;;21.40;65.80;;;;;;2343548;57;21089;-77
2022/07/09 09:49:18;;;;;;;3.37;1.60;;;21.30;65.80;;;;;;2344047;57;21058;-78
2022/07/09 09:51:56;;;;;;;3.15;1.30;;;21.40;66.40;;;;;;2345389;57;21660;-77
2022/07/09 09:54:24;;;;;;;5.72;1.52;;;21.40;67.20;;;;;;2344794;57;21058;-77
2022/07/09 09:56:52;;;;;;;2.85;1.30;;;21.50;67.20;;;;;;2344933;57;21049;-77
2022/07/09 09:59:21;;;;;;;2.28;1.35;;;21.50;66.30;;;;;;2344737;57;21100;-79
2022/07/09 10:01:48;;;;;;;2.50;1.37;;;21.60;65.20;;;;;;2345900;57;21557;-78
2022/07/09 10:04:15;;;;;;;5.60;1.42;;;21.70;64.90;;;;;;2343907;57;21053;-79
2022/07/09 10:06:44;;;;;;;2.22;1.30;;;21.70;64.50;;;;;;2342040;57;21137;-77
2022/07/09 10:09:14;;;;;;;3.40;1.30;;;21.80;64.60;;;;;;2343508;57;21132;-77
2022/07/09 10:11:42;;;;;;;3.60;1.40;;;21.80;64.50;;;;;;2344197;57;23187;-78
2022/07/09 10:14:16;;;;;;;4.40;1.40;;;21.80;64.50;;;;;;2343739;57;21092;-77
2022/07/09 10:16:44;;;;;;;6.82;1.30;;;21.80;65.00;;;;;;2341118;57;21547;-78
2022/07/09 10:19:22;;;;;;;2.75;1.17;;;21.80;64.40;;;;;;2342428;57;21132;-77
2022/07/09 10:21:53;;;;;;;2.40;1.20;;;21.80;63.30;;;;;;2341214;57;21022;-77
2022/07/09 10:24:26;;;;;;;3.35;1.20;;;21.80;63.10;;;;;;2342866;57;21058;-77
2022/07/09 10:27:02;;;;;;;2.03;1.02;;;21.70;63.50;;;;;;2343234;57;21524;-77
2022/07/09 10:29:30;;;;;;;2.47;1.10;;;21.70;61.50;;;;;;2383281;52;21520;-75
2022/07/09 10:31:58;;;;;;;3.55;1.10;;;21.80;60.60;;;;;;2360357;57;21563;-74
2022/07/09 10:37:34;;;;;;;4.22;1.33;;;21.90;60.90;;;;;;2356030;54;23171;-75
2022/07/09 10:40:13;;;;;;;2.50;1.40;;;22.00;60.60;;;;;;2351823;56;21740;-75
2022/07/09 10:42:41;;;;;;;4.45;1.10;;;22.00;60.50;;;;;;2364140;56;21030;-74
2022/07/09 10:48:15;;;;;;;2.10;1.20;;;22.10;59.40;;;;;;2353028;57;22073;-77
2022/07/09 10:50:45;;;;;;;5.10;1.10;;;22.20;60.00;;;;;;2364037;56;21043;-77
2022/07/09 10:53:13;;;;;;;3.92;1.25;;;22.20;59.30;;;;;;2372527;56;21050;-77
2022/07/09 10:55:43;;;;;;;4.43;1.20;;;22.20;60.40;;;;;;2386748;52;21071;-77
2022/07/09 10:58:18;;;;;;;2.05;1.40;;;22.10;61.60;;;;;;2462367;52;21051;-76
2022/07/09 11:00:54;;;;;;;1.77;1.10;;;22.00;61.90;;;;;;2373687;56;21110;-76
2022/07/09 11:03:26;;;;;;;3.55;1.23;;;21.90;61.40;;;;;;2371245;56;21054;-76
2022/07/09 11:05:54;;;;;;;2.40;1.20;;;21.80;61.60;;;;;;2391305;52;21062;-74
2022/07/09 11:08:21;;;;;;;1.55;1.10;;;21.80;61.40;;;;;;2373233;56;21050;-72
2022/07/09 11:10:49;;;;;;;3.08;1.10;;;21.80;60.60;;;;;;2373307;56;21110;-74
2022/07/09 11:13:16;;;;;;;3.80;1.05;;;21.80;60.40;;;;;;2384538;52;21078;-71
2022/07/09 11:15:44;;;;;;;3.30;1.35;;;21.90;59.70;;;;;;2374283;52;21929;-73
2022/07/09 11:18:13;;;;;;;3.17;1.20;;;21.80;59.50;;;;;;2373402;56;21381;-74
2022/07/09 11:20:43;;;;;;;3.42;1.12;;;21.90;60.20;;;;;;2373248;56;21031;-74
2022/07/09 11:23:11;;;;;;;2.42;1.20;;;21.90;61.30;;;;;;2372792;56;21106;-73
2022/07/09 11:25:39;;;;;;;3.08;1.27;;;21.90;61.20;;;;;;2372618;56;21517;-74
2022/07/09 11:28:07;;;;;;;5.28;1.25;;;21.90;60.30;;;;;;2373034;56;21074;-73
2022/07/09 11:30:36;;;;;;;5.03;0.95;;;21.90;60.70;;;;;;2371552;56;21062;-72
2022/07/09 11:33:04;;;;;;;1.00;1.00;;;22.00;59.10;;;;;;2373190;56;21043;-73
2022/07/09 11:35:33;;;;;;;3.85;1.10;;;22.00;59.50;;;;;;2373379;56;21027;-74
2022/07/09 11:38:03;;;;;;;3.17;1.17;;;22.10;58.20;;;;;;2373910;56;21055;-74
2022/07/09 11:40:31;;;;;;;3.80;1.50;;;22.30;57.90;;;;;;2373963;56;21035;-74
2022/07/09 11:42:58;;;;;;;2.85;1.25;;;22.40;58.00;;;;;;2374105;56;21043;-74
2022/07/09 11:45:27;;;;;;;3.50;1.08;;;22.50;58.40;;;;;;2419615;52;21569;-76
2022/07/09 11:48:05;;;;;;;1.77;1.00;;;22.70;58.20;;;;;;2373608;56;21051;-76
2022/07/09 11:50:33;;;;;;;3.37;0.85;;;22.90;55.20;;;;;;2373706;56;21142;-75
2022/07/09 11:53:00;;;;;;;2.72;0.88;;;22.90;53.90;;;;;;2374053;56;21640;-76
2022/07/09 11:55:32;;;;;;;1.90;0.70;;;23.00;54.30;;;;;;2450517;52;21057;-75
2022/07/09 11:58:06;;;;;;;1.37;0.88;;;23.10;54.60;;;;;;2373359;56;21051;-75
2022/07/09 12:00:35;;;;;;;5.00;0.80;;;23.20;54.60;;;;;;2373092;56;21123;-75
2022/07/09 12:03:04;;;;;;;1.25;0.80;;;23.20;54.00;;;;;;2373014;56;21031;-75
2022/07/09 12:05:35;;;;;;;1.73;0.73;;;23.30;53.90;;;;;;2370665;56;21067;-76
2022/07/09 12:08:05;;;;;;;1.37;0.90;;;23.30;54.00;;;;;;2372467;56;21051;-75
2022/07/09 12:10:35;;;;;;;3.28;1.00;;;23.40;53.50;;;;;;2373021;56;21102;-75
2022/07/09 12:13:03;;;;;;;5.57;0.95;;;23.50;53.80;;;;;;2373112;56;21118;-75
2022/07/09 12:15:31;;;;;;;3.03;0.90;;;23.70;53.70;;;;;;2372613;56;21043;-76
2022/07/09 12:18:00;;;;;;;3.20;0.98;;;23.60;53.10;;;;;;2372317;56;21071;-75
2022/07/09 12:20:29;;;;;;;2.72;0.90;;;23.50;52.50;;;;;;2372310;56;21068;-75
2022/07/09 12:22:57;;;;;;;3.05;0.90;;;23.50;52.90;;;;;;2371913;56;21153;-75
2022/07/09 12:25:25;;;;;;;1.42;0.80;;;23.40;53.20;;;;;;2370436;56;22472;-75
2022/07/09 12:27:52;;;;;;;2.62;1.05;;;23.40;52.20;;;;;;2371409;56;21035;-75
2022/07/09 12:30:20;;;;;;;2.50;1.05;;;23.40;53.20;;;;;;2372160;56;21051;-75
2022/07/09 12:32:48;;;;;;;4.28;1.20;;;23.50;52.70;;;;;;2372723;56;21055;-75
2022/07/09 12:35:16;;;;;;;2.15;0.73;;;23.40;53.10;;;;;;2429776;52;21063;-75
2022/07/09 12:37:43;;;;;;;2.17;1.10;;;23.30;51.70;;;;;;2371732;56;21533;-75
2022/07/09 12:40:11;;;;;;;2.78;1.02;;;23.40;51.70;;;;;;2372220;56;21128;-75
2022/07/09 12:42:39;;;;;;;2.08;0.80;;;23.50;51.90;;;;;;2466282;52;21062;-75
2022/07/09 12:45:09;;;;;;;5.28;1.08;;;23.50;51.60;;;;;;2371965;56;21565;-75
2022/07/09 12:47:37;;;;;;;3.60;1.00;;;23.60;51.10;;;;;;2372043;56;21081;-75
2022/07/09 12:50:06;;;;;;;3.62;1.00;;;23.70;50.40;;;;;;2372390;56;21034;-75
2022/07/09 12:52:33;;;;;;;4.82;1.40;;;23.70;49.70;;;;;;2503976;52;21047;-75
2022/07/09 12:55:01;;;;;;;4.03;1.00;;;23.70;49.30;;;;;;2371224;56;21138;-74
2022/07/09 12:57:28;;;;;;;3.03;1.00;;;23.70;49.50;;;;;;2372027;56;21544;-75
2022/07/09 12:59:57;;;;;;;1.40;0.90;;;23.70;50.20;;;;;;2371908;56;21051;-76
2022/07/09 13:02:24;;;;;;;5.20;1.00;;;23.80;50.50;;;;;;2371515;56;21046;-75
2022/07/09 13:04:51;;;;;;;4.25;1.12;;;23.90;49.40;;;;;;2371724;56;21597;-75